sensor_id;sensor_type;location;lat;lon;timestamp;pressure;altitude;pressure_sealevel;temperature;humidity
78383;BME280;67668;52.294;4.692;2023-06-14T00:03:11;101635.34;;;23.35;46.60
78383;BME280;67668;52.294;4.692;2023-06-14T00:05:38;101637.44;;;23.33;46.66
78383;BME280;67668;52.294;4.692;2023-06-14T00:08:09;101633.47;;;23.29;47.01
78383;BME280;67668;52.294;4.692;2023-06-14T00:10:36;101633.88;;;23.26;46.81
78383;BME280;67668;52.294;4.692;2023-06-14T00:13:04;101634.31;;;23.23;46.91
78383;BME280;67668;52.294;4.692;2023-06-14T00:15:33;101628.47;;;23.19;47.00
78383;BME280;67668;52.294;4.692;2023-06-14T00:17:59;101626.38;;;23.14;47.29
78383;BME280;67668;52.294;4.692;2023-06-14T00:20:28;101626.78;;;23.11;46.73
78383;BME280;67668;52.294;4.692;2023-06-14T00:22:54;101629.91;;;23.08;47.03
78383;BME280;67668;52.294;4.692;2023-06-14T00:25:24;101635.72;;;23.05;47.23
78383;BME280;67668;52.294;4.692;2023-06-14T00:27:54;101631.75;;;23.01;46.98
78383;BME280;67668;52.294;4.692;2023-06-14T00:30:20;101625.91;;;22.98;46.87
78383;BME280;67668;52.294;4.692;2023-06-14T00:32:45;101630.91;;;22.94;46.76
78383;BME280;67668;52.294;4.692;2023-06-14T00:35:11;101630.47;;;22.91;46.76
78383;BME280;67668;52.294;4.692;2023-06-14T00:37:38;101630.03;;;22.87;46.70
78383;BME280;67668;52.294;4.692;2023-06-14T00:40:04;101630.44;;;22.84;46.68
78383;BME280;67668;52.294;4.692;2023-06-14T00:42:30;101623.81;;;22.80;46.83
78383;BME280;67668;52.294;4.692;2023-06-14T00:44:56;101622.53;;;22.76;46.46
78383;BME280;67668;52.294;4.692;2023-06-14T00:47:22;101620.25;;;22.73;46.48
78383;BME280;67668;52.294;4.692;2023-06-14T00:49:49;101620.84;;;22.69;46.19
78383;BME280;67668;52.294;4.692;2023-06-14T00:52:16;101624.78;;;22.66;46.50
78383;BME280;67668;52.294;4.692;2023-06-14T00:54:42;101622.47;;;22.63;46.36
78383;BME280;67668;52.294;4.692;2023-06-14T00:57:08;101625.56;;;22.60;46.49
78383;BME280;67668;52.294;4.692;2023-06-14T00:59:38;101623.28;;;22.57;46.33
78383;BME280;67668;52.294;4.692;2023-06-14T01:02:05;101627.41;;;22.53;46.27
78383;BME280;67668;52.294;4.692;2023-06-14T01:04:31;101628.66;;;22.50;46.17
78383;BME280;67668;52.294;4.692;2023-06-14T01:07:14;101621.97;;;22.46;46.34
78383;BME280;67668;52.294;4.692;2023-06-14T01:10:02;101626.09;;;22.42;46.29
78383;BME280;67668;52.294;4.692;2023-06-14T01:15:20;101628.94;;;22.34;46.39
78383;BME280;67668;52.294;4.692;2023-06-14T01:17:49;101630.19;;;22.32;46.01
78383;BME280;67668;52.294;4.692;2023-06-14T01:20:17;101631.44;;;22.29;46.10
78383;BME280;67668;52.294;4.692;2023-06-14T01:22:53;101631.00;;;22.26;46.42
78383;BME280;67668;52.294;4.692;2023-06-14T01:25:22;101636.13;;;22.21;46.20
78383;BME280;67668;52.294;4.692;2023-06-14T01:27:52;101633.84;;;22.17;46.32
78383;BME280;67668;52.294;4.692;2023-06-14T01:30:20;101631.53;;;22.14;46.40
78383;BME280;67668;52.294;4.692;2023-06-14T01:32:47;101635.47;;;22.12;46.20
78383;BME280;67668;52.294;4.692;2023-06-14T01:35:13;101631.50;;;22.08;46.03
78383;BME280;67668;52.294;4.692;2023-06-14T01:37:40;101638.13;;;22.05;46.43
78383;BME280;67668;52.294;4.692;2023-06-14T01:40:08;101633.13;;;22.02;46.35
78383;BME280;67668;52.294;4.692;2023-06-14T01:42:36;101623.75;;;21.98;46.71
78383;BME280;67668;52.294;4.692;2023-06-14T01:45:04;101632.25;;;21.95;46.62
78383;BME280;67668;52.294;4.692;2023-06-14T01:47:31;101637.00;;;21.93;46.48
78383;BME280;67668;52.294;4.692;2023-06-14T01:49:57;101632.03;;;21.90;46.64
78383;BME280;67668;52.294;4.692;2023-06-14T01:52:22;101635.25;;;21.86;46.72
78383;BME280;67668;52.294;4.692;2023-06-14T01:54:50;101635.44;;;21.84;46.77
78383;BME280;67668;52.294;4.692;2023-06-14T01:57:15;101636.03;;;21.80;46.51
78383;BME280;67668;52.294;4.692;2023-06-14T01:59:41;101631.06;;;21.77;46.85
78383;BME280;67668;52.294;4.692;2023-06-14T02:02:06;101632.28;;;21.74;46.79
78383;BME280;67668;52.294;4.692;2023-06-14T02:04:32;101632.66;;;21.71;46.66
78383;BME280;67668;52.294;4.692;2023-06-14T02:06:57;101633.03;;;21.68;46.95
78383;BME280;67668;52.294;4.692;2023-06-14T02:09:22;101630.72;;;21.65;46.99
78383;BME280;67668;52.294;4.692;2023-06-14T02:11:49;101632.81;;;21.63;46.62
78383;BME280;67668;52.294;4.692;2023-06-14T02:14:14;101629.84;;;21.58;46.80
78383;BME280;67668;52.294;4.692;2023-06-14T02:16:39;101627.53;;;21.55;47.10
78383;BME280;67668;52.294;4.692;2023-06-14T02:19:05;101626.06;;;21.52;46.97
78383;BME280;67668;52.294;4.692;2023-06-14T02:21:30;101627.31;;;21.50;46.97
78383;BME280;67668;52.294;4.692;2023-06-14T02:23:57;101621.47;;;21.46;46.89
78383;BME280;67668;52.294;4.692;2023-06-14T02:26:23;101622.69;;;21.44;47.01
78383;BME280;67668;52.294;4.692;2023-06-14T02:28:49;101624.94;;;21.40;46.89
78383;BME280;67668;52.294;4.692;2023-06-14T02:31:14;101629.88;;;21.37;47.03
78383;BME280;67668;52.294;4.692;2023-06-14T02:33:41;101629.44;;;21.33;47.02
78383;BME280;67668;52.294;4.692;2023-06-14T02:36:06;101627.13;;;21.30;46.77
78383;BME280;67668;52.294;4.692;2023-06-14T02:38:32;101630.00;;;21.29;46.97
78383;BME280;67668;52.294;4.692;2023-06-14T02:40:58;101624.38;;;21.24;46.91
78383;BME280;67668;52.294;4.692;2023-06-14T02:43:24;101625.59;;;21.21;47.15
78383;BME280;67668;52.294;4.692;2023-06-14T02:45:49;101629.47;;;21.19;46.97
78383;BME280;67668;52.294;4.692;2023-06-14T02:48:15;101634.41;;;21.15;46.89
78383;BME280;67668;52.294;4.692;2023-06-14T02:50:41;101639.34;;;21.11;46.96
78383;BME280;67668;52.294;4.692;2023-06-14T02:53:06;101642.38;;;21.08;46.77
78383;BME280;67668;52.294;4.692;2023-06-14T02:55:32;101637.59;;;21.04;46.89
78383;BME280;67668;52.294;4.692;2023-06-14T02:57:57;101639.63;;;21.02;46.97
78383;BME280;67668;52.294;4.692;2023-06-14T03:00:23;101642.69;;;20.99;47.19
78383;BME280;67668;52.294;4.692;2023-06-14T03:02:49;101643.91;;;20.96;47.12
78383;BME280;67668;52.294;4.692;2023-06-14T03:05:16;101643.47;;;20.93;47.35
78383;BME280;67668;52.294;4.692;2023-06-14T03:07:46;101642.00;;;20.90;47.27
78383;BME280;67668;52.294;4.692;2023-06-14T03:10:13;101645.06;;;20.87;46.95
78383;BME280;67668;52.294;4.692;2023-06-14T03:12:39;101648.13;;;20.84;47.20
78383;BME280;67668;52.294;4.692;2023-06-14T03:15:05;101645.81;;;20.81;47.05
78383;BME280;67668;52.294;4.692;2023-06-14T03:17:30;101649.91;;;20.77;47.29
78383;BME280;67668;52.294;4.692;2023-06-14T03:19:59;101657.31;;;20.75;47.28
78383;BME280;67668;52.294;4.692;2023-06-14T03:22:25;101663.06;;;20.72;47.14
78383;BME280;67668;52.294;4.692;2023-06-14T03:24:51;101670.50;;;20.70;47.07
78383;BME280;67668;52.294;4.692;2023-06-14T03:27:17;101665.50;;;20.67;46.92
78383;BME280;67668;52.294;4.692;2023-06-14T03:29:43;101675.81;;;20.63;47.06
78383;BME280;67668;52.294;4.692;2023-06-14T03:32:09;101677.03;;;20.61;47.02
78383;BME280;67668;52.294;4.692;2023-06-14T03:34:34;101671.19;;;20.57;46.99
78383;BME280;67668;52.294;4.692;2023-06-14T03:37:00;101674.25;;;20.54;47.02
78383;BME280;67668;52.294;4.692;2023-06-14T03:39:26;101674.63;;;20.51;46.83
78383;BME280;67668;52.294;4.692;2023-06-14T03:41:51;101672.28;;;20.48;46.70
78383;BME280;67668;52.294;4.692;2023-06-14T03:44:17;101678.03;;;20.45;46.63
78383;BME280;67668;52.294;4.692;2023-06-14T03:46:44;101669.50;;;20.42;46.49
78383;BME280;67668;52.294;4.692;2023-06-14T03:49:11;101674.59;;;20.37;46.64
78383;BME280;67668;52.294;4.692;2023-06-14T03:51:36;101672.94;;;20.36;46.28
78383;BME280;67668;52.294;4.692;2023-06-14T03:54:02;101671.63;;;20.32;46.41
78383;BME280;67668;52.294;4.692;2023-06-14T03:56:27;101683.41;;;20.31;46.26
78383;BME280;67668;52.294;4.692;2023-06-14T03:58:52;101683.78;;;20.28;46.48
78383;BME280;67668;52.294;4.692;2023-06-14T04:01:18;101683.09;;;20.26;46.46
78383;BME280;67668;52.294;4.692;2023-06-14T04:03:43;101688.00;;;20.22;46.14
78383;BME280;67668;52.294;4.692;2023-06-14T04:06:09;101690.03;;;20.20;46.69
78383;BME280;67668;52.294;4.692;2023-06-14T04:08:34;101693.94;;;20.18;46.47
78383;BME280;67668;52.294;4.692;2023-06-14T04:11:00;101693.28;;;20.16;46.60
78383;BME280;67668;52.294;4.692;2023-06-14T04:13:26;101700.69;;;20.13;46.57
78383;BME280;67668;52.294;4.692;2023-06-14T04:15:51;101700.06;;;20.11;46.47
78383;BME280;67668;52.294;4.692;2023-06-14T04:18:18;101697.72;;;20.08;46.41
78383;BME280;67668;52.294;4.692;2023-06-14T04:20:45;101704.28;;;20.06;46.47
78383;BME280;67668;52.294;4.692;2023-06-14T04:23:14;101704.84;;;20.01;46.03
78383;BME280;67668;52.294;4.692;2023-06-14T04:25:40;101698.81;;;19.99;46.63
78383;BME280;67668;52.294;4.692;2023-06-14T04:28:06;101700.84;;;19.97;47.10
78383;BME280;67668;52.294;4.692;2023-06-14T04:30:34;101704.38;;;19.98;47.45
78383;BME280;67668;52.294;4.692;2023-06-14T04:33:01;101704.56;;;19.96;47.03
78383;BME280;67668;52.294;4.692;2023-06-14T04:35:30;101700.38;;;19.94;47.32
78383;BME280;67668;52.294;4.692;2023-06-14T04:37:58;101704.91;;;19.93;47.74
78383;BME280;67668;52.294;4.692;2023-06-14T04:40:24;101698.91;;;19.91;47.24
78383;BME280;67668;52.294;4.692;2023-06-14T04:42:49;101706.97;;;19.91;47.71
78383;BME280;67668;52.294;4.692;2023-06-14T04:45:16;101698.22;;;19.89;47.91
78383;BME280;67668;52.294;4.692;2023-06-14T04:47:42;101706.50;;;19.88;47.42
78383;BME280;67668;52.294;4.692;2023-06-14T04:50:08;101704.81;;;19.87;47.61
78383;BME280;67668;52.294;4.692;2023-06-14T04:52:35;101704.97;;;19.85;47.75
78383;BME280;67668;52.294;4.692;2023-06-14T04:55:01;101707.66;;;19.85;47.58
78383;BME280;67668;52.294;4.692;2023-06-14T04:57:27;101705.53;;;19.81;47.09
78383;BME280;67668;52.294;4.692;2023-06-14T04:59:52;101712.91;;;19.79;47.20
78383;BME280;67668;52.294;4.692;2023-06-14T05:02:21;101716.44;;;19.79;47.67
78383;BME280;67668;52.294;4.692;2023-06-14T05:04:47;101714.81;;;19.78;47.92
78383;BME280;67668;52.294;4.692;2023-06-14T05:07:13;101707.53;;;19.79;47.99
78383;BME280;67668;52.294;4.692;2023-06-14T05:09:39;101708.38;;;19.79;47.77
78383;BME280;67668;52.294;4.692;2023-06-14T05:12:05;101711.28;;;19.78;47.64
78383;BME280;67668;52.294;4.692;2023-06-14T05:14:33;101714.81;;;19.78;48.24
78383;BME280;67668;52.294;4.692;2023-06-14T05:16:58;101714.59;;;19.80;48.22
78383;BME280;67668;52.294;4.692;2023-06-14T05:19:24;101711.06;;;19.79;48.05
78383;BME280;67668;52.294;4.692;2023-06-14T05:21:50;101719.97;;;19.80;48.27
78383;BME280;67668;52.294;4.692;2023-06-14T05:24:15;101720.81;;;19.80;48.32
78383;BME280;67668;52.294;4.692;2023-06-14T05:26:43;101727.19;;;19.79;48.13
78383;BME280;67668;52.294;4.692;2023-06-14T05:29:08;101722.84;;;19.78;47.63
78383;BME280;67668;52.294;4.692;2023-06-14T05:31:33;101718.28;;;19.79;48.10
78383;BME280;67668;52.294;4.692;2023-06-14T05:33:59;101725.53;;;19.78;47.68
78383;BME280;67668;52.294;4.692;2023-06-14T05:36:24;101719.13;;;19.79;47.89
78383;BME280;67668;52.294;4.692;2023-06-14T05:38:51;101726.19;;;19.80;48.34
78383;BME280;67668;52.294;4.692;2023-06-14T05:41:16;101727.03;;;19.81;47.94
78383;BME280;67668;52.294;4.692;2023-06-14T05:43:42;101726.84;;;19.82;48.12
78383;BME280;67668;52.294;4.692;2023-06-14T05:46:07;101729.34;;;19.84;48.18
78383;BME280;67668;52.294;4.692;2023-06-14T05:48:33;101729.16;;;19.85;48.01
78383;BME280;67668;52.294;4.692;2023-06-14T05:50:58;101731.50;;;19.88;47.55
78383;BME280;67668;52.294;4.692;2023-06-14T05:53:24;101732.69;;;19.86;47.43
78383;BME280;67668;52.294;4.692;2023-06-14T05:55:50;101736.88;;;19.88;47.31
78383;BME280;67668;52.294;4.692;2023-06-14T05:58:21;101734.00;;;19.90;47.10
78383;BME280;67668;52.294;4.692;2023-06-14T06:00:46;101740.03;;;19.92;47.60
78383;BME280;67668;52.294;4.692;2023-06-14T06:03:12;101741.69;;;19.93;47.22
78383;BME280;67668;52.294;4.692;2023-06-14T06:05:38;101751.25;;;19.95;47.13
78383;BME280;67668;52.294;4.692;2023-06-14T06:08:04;101745.53;;;19.98;46.80
78383;BME280;67668;52.294;4.692;2023-06-14T06:10:29;101748.22;;;19.98;45.16
78383;BME280;67668;52.294;4.692;2023-06-14T06:12:55;101748.22;;;19.98;45.53
78383;BME280;67668;52.294;4.692;2023-06-14T06:15:20;101756.72;;;20.02;46.05
78383;BME280;67668;52.294;4.692;2023-06-14T06:17:46;101752.50;;;20.07;45.57
78383;BME280;67668;52.294;4.692;2023-06-14T06:20:11;101745.91;;;20.10;44.73
78383;BME280;67668;52.294;4.692;2023-06-14T06:22:38;101755.28;;;20.14;44.47
78383;BME280;67668;52.294;4.692;2023-06-14T06:25:03;101749.56;;;20.17;44.02
78383;BME280;67668;52.294;4.692;2023-06-14T06:27:29;101746.50;;;20.20;45.02
78383;BME280;67668;52.294;4.692;2023-06-14T06:29:54;101750.50;;;20.24;44.64
78383;BME280;67668;52.294;4.692;2023-06-14T06:32:20;101760.34;;;20.32;44.79
78383;BME280;67668;52.294;4.692;2023-06-14T06:34:45;101757.97;;;20.37;44.15
78383;BME280;67668;52.294;4.692;2023-06-14T06:37:11;101752.22;;;20.40;44.24
78383;BME280;67668;52.294;4.692;2023-06-14T06:39:36;101756.22;;;20.44;44.20
78383;BME280;67668;52.294;4.692;2023-06-14T06:42:02;101764.38;;;20.50;44.48
78383;BME280;67668;52.294;4.692;2023-06-14T06:44:27;101760.78;;;20.58;44.29
78383;BME280;67668;52.294;4.692;2023-06-14T06:46:53;101762.53;;;20.66;43.77
78383;BME280;67668;52.294;4.692;2023-06-14T06:49:18;101769.84;;;20.72;43.79
78383;BME280;67668;52.294;4.692;2023-06-14T06:51:59;101761.88;;;20.78;43.54
78383;BME280;67668;52.294;4.692;2023-06-14T06:54:25;101772.19;;;20.89;43.96
78383;BME280;67668;52.294;4.692;2023-06-14T06:56:50;101768.75;;;20.95;42.89
78383;BME280;67668;52.294;4.692;2023-06-14T06:59:15;101777.56;;;21.04;42.50
78383;BME280;67668;52.294;4.692;2023-06-14T07:01:42;101769.59;;;21.10;42.74
78383;BME280;67668;52.294;4.692;2023-06-14T07:04:07;101782.78;;;21.20;43.49
78383;BME280;67668;52.294;4.692;2023-06-14T07:06:38;101783.31;;;21.30;43.25
78383;BME280;67668;52.294;4.692;2023-06-14T07:09:04;101787.38;;;21.41;42.35
78383;BME280;67668;52.294;4.692;2023-06-14T07:11:33;101791.63;;;21.50;42.80
78383;BME280;67668;52.294;4.692;2023-06-14T07:13:58;101796.72;;;21.59;41.58
78383;BME280;67668;52.294;4.692;2023-06-14T07:16:26;101791.38;;;21.66;42.13
78383;BME280;67668;52.294;4.692;2023-06-14T07:18:51;101791.91;;;21.76;42.17
78383;BME280;67668;52.294;4.692;2023-06-14T07:21:17;101795.13;;;21.86;40.59
78383;BME280;67668;52.294;4.692;2023-06-14T07:23:43;101795.00;;;21.94;41.37
78383;BME280;67668;52.294;4.692;2023-06-14T07:26:08;101797.41;;;22.04;41.57
78383;BME280;67668;52.294;4.692;2023-06-14T07:28:35;101804.97;;;22.15;40.42
78383;BME280;67668;52.294;4.692;2023-06-14T07:31:01;101810.03;;;22.25;40.28
78383;BME280;67668;52.294;4.692;2023-06-14T07:33:26;101811.56;;;22.34;40.21
78383;BME280;67668;52.294;4.692;2023-06-14T07:35:51;101814.75;;;22.44;39.86
78383;BME280;67668;52.294;4.692;2023-06-14T07:38:18;101805.69;;;22.51;39.92
78383;BME280;67668;52.294;4.692;2023-06-14T07:40:43;101804.13;;;22.63;40.68
78383;BME280;67668;52.294;4.692;2023-06-14T07:43:09;101810.84;;;22.74;40.45
78383;BME280;67668;52.294;4.692;2023-06-14T07:45:34;101816.31;;;22.87;39.04
78383;BME280;67668;52.294;4.692;2023-06-14T07:48:00;101808.94;;;23.02;39.24
78383;BME280;67668;52.294;4.692;2023-06-14T07:50:25;101813.41;;;23.16;39.41
78383;BME280;67668;52.294;4.692;2023-06-14T07:52:50;101814.66;;;23.27;38.47
78383;BME280;67668;52.294;4.692;2023-06-14T07:55:16;101805.03;;;23.46;38.95
78383;BME280;67668;52.294;4.692;2023-06-14T07:57:45;101817.94;;;23.63;39.40
78383;BME280;67668;52.294;4.692;2023-06-14T08:00:12;101815.09;;;23.78;38.19
78383;BME280;67668;52.294;4.692;2023-06-14T08:02:41;101809.91;;;23.90;37.89
78383;BME280;67668;52.294;4.692;2023-06-14T08:05:11;101821.16;;;24.00;37.13
78383;BME280;67668;52.294;4.692;2023-06-14T08:07:40;101823.72;;;24.14;37.31
78383;BME280;67668;52.294;4.692;2023-06-14T08:10:06;101826.22;;;24.29;37.24
78383;BME280;67668;52.294;4.692;2023-06-14T08:12:32;101819.97;;;24.42;36.98
78383;BME280;67668;52.294;4.692;2023-06-14T08:14:58;101822.44;;;24.56;37.32
78383;BME280;67668;52.294;4.692;2023-06-14T08:17:23;101827.03;;;24.69;36.18
78383;BME280;67668;52.294;4.692;2023-06-14T08:19:49;101826.63;;;24.85;36.12
78383;BME280;67668;52.294;4.692;2023-06-14T08:22:14;101814.09;;;24.97;34.17
78383;BME280;67668;52.294;4.692;2023-06-14T08:24:40;101828.44;;;25.11;33.92
78383;BME280;67668;52.294;4.692;2023-06-14T08:27:06;101818.78;;;25.28;33.80
78383;BME280;67668;52.294;4.692;2023-06-14T08:29:31;101819.56;;;25.42;33.40
78383;BME280;67668;52.294;4.692;2023-06-14T08:31:57;101812.19;;;25.55;33.40
78383;BME280;67668;52.294;4.692;2023-06-14T08:34:23;101809.66;;;25.67;32.49
78383;BME280;67668;52.294;4.692;2023-06-14T08:36:50;101817.06;;;25.85;31.98
78383;BME280;67668;52.294;4.692;2023-06-14T08:39:16;101823.22;;;25.98;31.78
78383;BME280;67668;52.294;4.692;2023-06-14T08:41:43;101816.44;;;26.14;31.46
78383;BME280;67668;52.294;4.692;2023-06-14T08:44:10;101831.22;;;26.25;30.91
78383;BME280;67668;52.294;4.692;2023-06-14T08:46:36;101822.78;;;26.33;30.95
78383;BME280;67668;52.294;4.692;2023-06-14T08:49:02;101813.47;;;26.47;31.57
78383;BME280;67668;52.294;4.692;2023-06-14T08:51:30;101819.63;;;26.60;30.36
78383;BME280;67668;52.294;4.692;2023-06-14T08:53:59;101820.53;;;26.72;29.47
78383;BME280;67668;52.294;4.692;2023-06-14T08:56:28;101825.84;;;26.86;29.94
78383;BME280;67668;52.294;4.692;2023-06-14T08:58:55;101829.50;;;26.98;29.62
78383;BME280;67668;52.294;4.692;2023-06-14T09:01:22;101827.44;;;27.11;29.28
78383;BME280;67668;52.294;4.692;2023-06-14T09:03:49;101833.94;;;27.29;28.40
78383;BME280;67668;52.294;4.692;2023-06-14T09:06:15;101821.41;;;27.46;28.55
78383;BME280;67668;52.294;4.692;2023-06-14T09:08:42;101824.22;;;27.57;27.90
78383;BME280;67668;52.294;4.692;2023-06-14T09:11:11;101823.19;;;27.70;26.92
78383;BME280;67668;52.294;4.692;2023-06-14T09:13:37;101827.03;;;27.81;27.09
78383;BME280;67668;52.294;4.692;2023-06-14T09:16:03;101817.56;;;27.95;28.06
78383;BME280;67668;52.294;4.692;2023-06-14T09:18:42;101821.56;;;28.10;27.29
78383;BME280;67668;52.294;4.692;2023-06-14T09:21:13;101823.97;;;28.30;26.92
78383;BME280;67668;52.294;4.692;2023-06-14T09:23:44;101827.41;;;28.49;26.81
78383;BME280;67668;52.294;4.692;2023-06-14T09:26:17;101821.25;;;28.65;26.01
78383;BME280;67668;52.294;4.692;2023-06-14T09:28:49;101822.69;;;28.79;25.99
78383;BME280;67668;52.294;4.692;2023-06-14T09:31:19;101828.91;;;29.14;27.07
78383;BME280;67668;52.294;4.692;2023-06-14T09:33:46;101827.03;;;29.27;25.60
78383;BME280;67668;52.294;4.692;2023-06-14T09:36:18;101830.66;;;29.44;25.11
78383;BME280;67668;52.294;4.692;2023-06-14T09:39:02;101830.34;;;29.57;24.11
78383;BME280;67668;52.294;4.692;2023-06-14T09:41:39;101835.31;;;29.60;23.51
78383;BME280;67668;52.294;4.692;2023-06-14T09:44:07;101818.69;;;29.73;24.71
78383;BME280;67668;52.294;4.692;2023-06-14T09:46:33;101823.03;;;29.86;23.32
78383;BME280;67668;52.294;4.692;2023-06-14T09:48:59;101826.28;;;29.99;23.63
78383;BME280;67668;52.294;4.692;2023-06-14T09:51:26;101836.97;;;30.17;23.63
78383;BME280;67668;52.294;4.692;2023-06-14T09:53:53;101840.59;;;30.23;22.08
78383;BME280;67668;52.294;4.692;2023-06-14T09:56:30;101836.47;;;30.37;21.60
78383;BME280;67668;52.294;4.692;2023-06-14T09:58:57;101833.19;;;30.52;22.47
78383;BME280;67668;52.294;4.692;2023-06-14T10:01:24;101825.22;;;30.67;21.67
78383;BME280;67668;52.294;4.692;2023-06-14T10:04:01;101833.97;;;30.86;22.02
78383;BME280;67668;52.294;4.692;2023-06-14T10:06:29;101838.09;;;31.05;22.05
78383;BME280;67668;52.294;4.692;2023-06-14T10:08:59;101836.88;;;31.17;22.07
78383;BME280;67668;52.294;4.692;2023-06-14T10:11:26;101832.63;;;31.26;22.12
78383;BME280;67668;52.294;4.692;2023-06-14T10:13:57;101844.19;;;31.34;20.73
78383;BME280;67668;52.294;4.692;2023-06-14T10:18:52;101843.19;;;31.61;21.34
78383;BME280;67668;52.294;4.692;2023-06-14T10:21:33;101843.41;;;31.82;22.16
78383;BME280;67668;52.294;4.692;2023-06-14T10:24:05;101835.25;;;31.87;20.29
78383;BME280;67668;52.294;4.692;2023-06-14T10:26:33;101843.25;;;31.93;21.59
78383;BME280;67668;52.294;4.692;2023-06-14T10:29:17;101831.34;;;32.04;19.88
78383;BME280;67668;52.294;4.692;2023-06-14T10:31:43;101831.50;;;32.24;19.74
78383;BME280;67668;52.294;4.692;2023-06-14T10:34:11;101833.22;;;32.36;20.10
78383;BME280;67668;52.294;4.692;2023-06-14T10:36:38;101833.31;;;32.46;20.69
78383;BME280;67668;52.294;4.692;2023-06-14T10:39:06;101831.81;;;32.60;19.90
78383;BME280;67668;52.294;4.692;2023-06-14T10:41:38;101842.28;;;32.68;19.92
78383;BME280;67668;52.294;4.692;2023-06-14T10:46:55;101852.31;;;32.94;20.29
78383;BME280;67668;52.294;4.692;2023-06-14T10:52:08;101852.16;;;33.11;19.77
78383;BME280;67668;52.294;4.692;2023-06-14T10:54:37;101845.88;;;33.20;19.42
78383;BME280;67668;52.294;4.692;2023-06-14T10:57:06;101843.72;;;33.33;18.94
78383;BME280;67668;52.294;4.692;2023-06-14T10:59:32;101848.97;;;33.39;18.08
78383;BME280;67668;52.294;4.692;2023-06-14T11:04:48;101841.84;;;33.43;17.49
78383;BME280;67668;52.294;4.692;2023-06-14T11:12:31;101841.94;;;33.68;19.39
78383;BME280;67668;52.294;4.692;2023-06-14T11:14:58;101846.91;;;33.82;18.50
78383;BME280;67668;52.294;4.692;2023-06-14T11:17:23;101854.34;;;33.91;18.27
78383;BME280;67668;52.294;4.692;2023-06-14T11:19:49;101843.38;;;34.06;17.51
78383;BME280;67668;52.294;4.692;2023-06-14T11:22:15;101836.81;;;34.12;18.43
78383;BME280;67668;52.294;4.692;2023-06-14T11:24:42;101840.94;;;34.25;18.36
78383;BME280;67668;52.294;4.692;2023-06-14T11:27:08;101853.31;;;34.22;18.12
78383;BME280;67668;52.294;4.692;2023-06-14T11:29:33;101834.06;;;34.33;17.95
78383;BME280;67668;52.294;4.692;2023-06-14T11:31:59;101825.25;;;34.41;19.42
78383;BME280;67668;52.294;4.692;2023-06-14T11:34:24;101832.66;;;34.45;17.69
78383;BME280;67668;52.294;4.692;2023-06-14T11:36:50;101830.19;;;34.59;19.15
78383;BME280;67668;52.294;4.692;2023-06-14T11:39:15;101827.44;;;34.69;19.51
78383;BME280;67668;52.294;4.692;2023-06-14T11:41:45;101833.75;;;34.64;16.94
78383;BME280;67668;52.294;4.692;2023-06-14T11:44:10;101824.41;;;34.65;17.69
78383;BME280;67668;52.294;4.692;2023-06-14T11:46:37;101815.34;;;34.60;17.18
78383;BME280;67668;52.294;4.692;2023-06-14T11:49:03;101820.28;;;34.73;19.09
78383;BME280;67668;52.294;4.692;2023-06-14T11:51:31;101819.44;;;34.77;19.53
78383;BME280;67668;52.294;4.692;2023-06-14T11:53:57;101835.66;;;34.84;19.51
78383;BME280;67668;52.294;4.692;2023-06-14T11:56:23;101816.38;;;34.84;18.43
78383;BME280;67668;52.294;4.692;2023-06-14T11:58:49;101820.78;;;34.90;18.68
78383;BME280;67668;52.294;4.692;2023-06-14T12:01:16;101825.44;;;34.95;18.42
78383;BME280;67668;52.294;4.692;2023-06-14T12:03:49;101825.97;;;35.02;17.98
78383;BME280;67668;52.294;4.692;2023-06-14T12:06:15;101819.06;;;35.04;18.77
78383;BME280;67668;52.294;4.692;2023-06-14T12:08:43;101827.06;;;35.06;17.97
78383;BME280;67668;52.294;4.692;2023-06-14T12:11:11;101834.19;;;35.17;18.79
78383;BME280;67668;52.294;4.692;2023-06-14T12:13:41;101826.75;;;35.17;19.47
78383;BME280;67668;52.294;4.692;2023-06-14T12:16:08;101831.13;;;35.23;18.43
78383;BME280;67668;52.294;4.692;2023-06-14T12:18:35;101837.66;;;35.38;18.83
78383;BME280;67668;52.294;4.692;2023-06-14T12:21:03;101835.47;;;35.40;18.34
78383;BME280;67668;52.294;4.692;2023-06-14T12:23:49;101837.63;;;35.48;18.87
78383;BME280;67668;52.294;4.692;2023-06-14T12:26:16;101831.25;;;35.52;19.23
78383;BME280;67668;52.294;4.692;2023-06-14T12:28:42;101827.13;;;35.55;19.46
78383;BME280;67668;52.294;4.692;2023-06-14T12:31:08;101833.97;;;35.57;19.07
78383;BME280;67668;52.294;4.692;2023-06-14T12:33:34;101835.91;;;35.57;19.87
78383;BME280;67668;52.294;4.692;2023-06-14T12:35:59;101826.81;;;35.61;18.67
78383;BME280;67668;52.294;4.692;2023-06-14T12:38:25;101835.31;;;35.70;18.77
78383;BME280;67668;52.294;4.692;2023-06-14T12:40:50;101832.84;;;35.68;17.79
78383;BME280;67668;52.294;4.692;2023-06-14T12:43:16;101833.09;;;35.72;18.29
78383;BME280;67668;52.294;4.692;2023-06-14T12:45:41;101839.69;;;35.76;18.74
78383;BME280;67668;52.294;4.692;2023-06-14T12:48:07;101844.38;;;35.75;17.97
78383;BME280;67668;52.294;4.692;2023-06-14T12:50:34;101846.31;;;35.75;17.52
78383;BME280;67668;52.294;4.692;2023-06-14T12:52:59;101835.84;;;35.72;18.48
78383;BME280;67668;52.294;4.692;2023-06-14T12:55:24;101843.88;;;35.68;18.74
78383;BME280;67668;52.294;4.692;2023-06-14T12:57:50;101838.94;;;35.65;18.09
78383;BME280;67668;52.294;4.692;2023-06-14T13:00:17;101837.22;;;35.74;17.74
78383;BME280;67668;52.294;4.692;2023-06-14T13:02:43;101840.53;;;35.71;17.92
78383;BME280;67668;52.294;4.692;2023-06-14T13:05:08;101843.91;;;35.58;17.08
78383;BME280;67668;52.294;4.692;2023-06-14T13:07:34;101838.34;;;35.68;17.96
78383;BME280;67668;52.294;4.692;2023-06-14T13:10:00;101844.44;;;35.65;18.91